Nearby METAR Reports

 

PAEN - Kenai, Alaska, USA
Distance from station: ESE 2mi, 4km
Updated: Thu, 18-Apr-2024 9:53pm AKDT
Mostly cloudy
Mostly cloudy
 Wind from NE
Wind: NE 15 mph , 24 km/h
Temperature: 45°F , 7°C
Wind Chill: 38°F , 3°C
Dew Point: 25°F , -4°C
Humidity: 46%
Barometer: 30.22 inHg , 1023.4 hPa
Clouds: Mostly cloudy
Visibility: 10 miles , 16 km
Cloud details: Mostly cloudy 11000 ft
2024/04/19 05:53 PAEN 190553Z AUTO 05013KT 10SM BKN110 07/M04 A3022 RMK AO2 SLP235 T00721039 10094 20067 56005 TSNO
PASX - Soldotna, Alaska, USA
Distance from station: SE 12mi, 19km
Updated: Thu, 18-Apr-2024 9:56pm AKDT
Clear
Clear
 Wind from ENE
Wind: ENE 10 mph , 17 km/h
Temperature: 46°F , 8°C
Wind Chill: 41°F , 5°C
Dew Point: 25°F , -4°C
Humidity: 43%
Barometer: 30.23 inHg , 1023.7 hPa
Clouds: Clear
Visibility: 10 miles , 16 km
2024/04/19 05:56 PASX 190556Z AUTO 07009KT 10SM CLR 08/M04 A3023 RMK AO2 SLP242 T00831039 10094 20078 56002
 
PANC - Anchorage Intl, Alaska, USA
Distance from station: NE 59mi, 96km
Updated: Thu, 18-Apr-2024 9:53pm AKDT
Mostly cloudy
Mostly cloudy
 Wind from WNW
Wind: WNW 5 mph , 7 km/h
Temperature: 41°F , 5°C
Wind Chill: 38°F , 3°C
Dew Point: 25°F , -4°C
Humidity: 53%
Barometer: 30.27 inHg , 1025.1 hPa
Clouds: Mostly cloudy
Visibility: 10 miles , 16 km
Cloud details: Few Clouds 5000 ft
Partly cloudy 12000 ft
Mostly cloudy 20000 ft
2024/04/19 05:53 PANC 190553Z 30004KT 10SM FEW050 SCT120 BKN200 05/M04 A3027 RMK AO2 SLP251 4/012 T00501044 10056 20039 53000
PALH - Anchorage/Lake H, Alaska, USA
Distance from station: NE 61mi, 99km
Updated: Thu, 18-Apr-2024 9:53pm AKDT
Mostly cloudy
Mostly cloudy
 Wind from calm
Wind: Calm
Temperature: 39°F , 4°C
Dew Point: 25°F , -4°C
Humidity: 56%
Barometer: 30.28 inHg , 1025.4 hPa
Clouds: Mostly cloudy
Visibility: 10 miles , 16 km
Cloud details: Mostly cloudy 11000 ft
2024/04/19 05:53 PALH 190553Z AUTO 00000KT 10SM BKN110 04/M04 A3028 RMK AO2 SLP254 T00391039 10056 20039 53001 TSNO
 
PAHO - Homer, Alaska, USA
Distance from station: S 66mi, 106km
Updated: Thu, 18-Apr-2024 9:53pm AKDT
Overcast
Overcast
 Wind from ENE
Wind: ENE 16 mph , 26 km/h, Gust: 30 mph , 48 km/h
Temperature: 43°F , 6°C
Wind Chill: 35°F , 2°C
Dew Point: 36°F , 2°C
Humidity: 76%
Barometer: 30.12 inHg , 1020 hPa
Clouds: Overcast
Visibility: 10 miles , 16 km
Cloud details: Overcast 3500 ft
2024/04/19 05:53 PAHO 190553Z AUTO 06014G26KT 10SM OVC035 06/02 A3012 RMK AO2 PK WND 04027/0541 SLP201 60000 T00610017 10072 20056 53009 TSNO
PAMR - Anchorage/Merril, Alaska, USA
Distance from station: NE 66mi, 106km
Updated: Thu, 18-Apr-2024 9:53pm AKDT
Clear
Clear
 Wind from varies
Wind: varies 5 mph , 7 km/h
Temperature: 41°F , 5°C
Wind Chill: 38°F , 3°C
Dew Point: 25°F , -4°C
Humidity: 53%
Barometer: 30.26 inHg , 1024.7 hPa
Clouds: Clear
Visibility: 10 miles , 16 km
2024/04/19 05:53 PAMR 190553Z VRB04KT 10SM CLR 05/M04 A3026 RMK AO2 SLP250 T00501044 10072 20044 56002
 
PAED - Elmendorf Afb, Alaska, USA
Distance from station: NE 69mi, 110km
Updated: Thu, 18-Apr-2024 9:55pm AKDT
Mostly cloudy
Mostly cloudy
 Wind from calm
Wind: Calm
Temperature: 41°F , 5°C
Dew Point: 27°F , -3°C
Humidity: 57%
Barometer: 30.25 inHg , 1024.4 hPa
Clouds: Mostly cloudy
Visibility: 10 miles , 16 km
Cloud details: Partly cloudy 13000 ft
Mostly cloudy 18000 ft
2024/04/19 05:55 PAED 190555Z 00000KT 10SM SCT130 BKN180 05/M03 A3025 RMK AO2A SLP241 4/005 T00461034 10066 20036 55001
PAWD - Seward, Alaska, USA
Distance from station: ESE 71mi, 115km
Updated: Thu, 18-Apr-2024 9:53pm AKDT
Overcast
Overcast
 Wind from S
Wind: S 5 mph , 7 km/h, Gust: 18 mph , 30 km/h
Temperature: 46°F , 8°C
Wind Chill: 44°F , 7°C
Dew Point: 25°F , -4°C
Humidity: 43%
Barometer: 30.24 inHg , 1024 hPa
Clouds: Overcast
Visibility: 10 miles , 16 km
Cloud details: Few Clouds 6000 ft
Overcast 7500 ft
2024/04/19 05:53 PAWD 190553Z AUTO 17004G16KT 10SM FEW060 OVC075 08/M04 A3024 RMK AO2 SLP240 60000 T00831044 10100 20067 53000 TSNO $
 
PASC - Deadhorse, Alaska, USA
Distance from station: ENE 670mi, 1078km
Updated: Thu, 18-Apr-2024 10:24pm AKDT
Light snow, Blowing, Snow, Mist, Overcast
Light snow, Blowing, Snow, Mist, Overcast
 Wind from E
Wind: E 15 mph , 24 km/h
Temperature: 23°F , -5°C
Wind Chill: 10°F , -12°C
Dew Point: 19°F , -7°C
Humidity: 86%
Barometer: 30.29 inHg , 1025.7 hPa
Summary: Light snow, Blowing, Snow, Mist
Clouds: Overcast
Visibility: 3/4 mile , 1.2 km
Cloud details: Overcast 300 ft
2024/04/19 06:24 PASC 190624Z 09013KT 3/4SM R06/3500VP6000FT -SN BLSN BR OVC003 M05/M07 A3029 RMK AO2 SNB05 T10501072 PNO
PAAD - Point Thomson, Alaska, USA
Distance from station: ENE 680mi, 1094km
Updated: Thu, 18-Apr-2024 10:35pm AKDT
Freezing fog, Overcast
Freezing fog, Overcast
 Wind from E
Wind: E 13 mph , 20 km/h
Temperature: 21°F , -6°C
Wind Chill: 8°F , -13°C
Dew Point: 19°F , -7°C
Humidity: 93%
Barometer: 30.30 inHg , 1026.1 hPa
Summary: Freezing Fog
Clouds: Overcast
Visibility: 1/4 mile , 0.4 km
Cloud details: Overcast 300 ft
2024/04/19 06:35 PAAD 190635Z AUTO 09011KT 1/4SM FZFG OVC003 M06/M07 A3030 RMK AO2 T10591068


Dans Automotive

Lower Peninsula Power Sports

Alaska Weather Net